Linda — OJML — position and weather

sailwx.info

Track history (hours):
 
Tides and Currents Weather Stations Pressure Air Temp Water Temp Dewpoint Dewpoint Depression Visibility Wind Speed Wind Dir Waves Ship Positions

Linda

Last reported at 2016-May-29 11:32 UTC. Time now 2016-May-29 11:34 UTC.
Position N 59°38' E 023°57'.

Length 141 m; draft 7 m.

Type: Ship (hazmat cat A). MMSI: 230984000.

Date/timePositionNaut miles runAvg speedWind from/ knotsBaromVisibWave heightAir tempDewpointWater temp
2016-May-29 11:32N 59°38' E 023°57'1110.6
2016-May-29 10:31N 59°35' E 023°36'7 6.9
2016-May-29 09:30N 59°32' E 023°23'329 6.6
2016-May-27 07:26N 55°48' E 015°55'1415.6
2016-May-27 06:33N 55°40' E 015°34'1615.8
2016-May-27 05:33N 55°32' E 015°10'1615.6
2016-May-27 04:33N 55°25' E 014°46'1615.6
2016-May-27 03:33N 55°14' E 014°25'1414.2
2016-May-27 02:33N 55°11' E 014°01'1515.4
2016-May-27 01:33N 55°12' E 013°34'1615.7
2016-May-27 00:33N 55°14' E 013°07'1515.4
2016-May-26 23:33N 55°17' E 012°40'1414.1
2016-May-26 22:34N 55°31' E 012°42'9 8.9
2016-May-26 21:34N 55°40' E 012°41'1413.7
2016-May-26 20:34N 55°54' E 012°40'1313.2
2016-May-26 19:34N 56°06' E 012°32'1515.4
2016-May-26 18:34N 56°15' E 012°09'3215.4
2016-May-26 16:30N 56°46' E 011°52'1515.7
2016-May-26 15:33N 56°60' E 011°42'1515.4
2016-May-26 14:34N 57°14' E 011°32'1515.4
2016-May-26 13:33N 57°28' E 011°22'1515.4
2016-May-26 12:34N 57°39' E 011°01'1514.5
2016-May-26 11:34N 57°47' E 010°38'1514.6
2016-May-26 10:34N 57°42' E 010°12'1515.5
2016-May-26 09:34N 57°36' E 009°46'24015.5
2016-May-25 18:04N 54°24' E 005°27'815.3
2016-May-25 17:33N 54°18' E 005°20'1515.1
2016-May-25 16:32N 54°04' E 005°07'1515.3
2016-May-25 15:33N 53°50' E 004°60'1715.2
2016-May-25 14:25N 53°34' E 004°48'4214.7
2016-May-25 11:32N 52°56' E 004°18'1814.5
2016-May-25 10:19N 52°41' E 004°04'1114.5
2016-May-25 09:33N 52°31' E 003°55'1514.7
2016-May-25 08:33N 52°16' E 003°52'1514.8
2016-May-25 07:33N 52°02' E 003°52'1111.1
2016-May-25 06:33N 51°58' E 004°09'1110.5
2016-May-25 05:33N 51°53' E 004°24'1 0.6
2016-May-25 04:33N 51°53' E 004°25'0 0.0
2016-May-25 03:33N 51°53' E 004°25'0 0.0
2016-May-25 02:33N 51°53' E 004°25'0 0.0
2016-May-25 01:33N 51°53' E 004°25'0 0.0
2016-May-25 00:33N 51°53' E 004°25'0 0.0
2016-May-24 23:33N 51°53' E 004°25'0 0.0
2016-May-24 22:33N 51°53' E 004°25'0 0.0
2016-May-24 21:33N 51°53' E 004°25'0 0.0
2016-May-24 20:33N 51°53' E 004°25'0 0.0
2016-May-24 19:33N 51°53' E 004°25'0 0.0
2016-May-24 18:33N 51°53' E 004°25'0 0.0
2016-May-24 17:33N 51°53' E 004°25'0 0.0
2016-May-24 16:33N 51°53' E 004°25'0 0.0
2016-May-24 15:33N 51°53' E 004°25'0 0.0
2016-May-24 14:33N 51°53' E 004°25'0 0.0
2016-May-24 13:33N 51°53' E 004°25'0 0.0
2016-May-24 12:33N 51°53' E 004°25'3 3.4
2016-May-24 11:34N 51°54' E 004°20'1211.7
2016-May-24 10:33N 51°59' E 004°03'1313.4
2016-May-24 09:34N 52°03' E 003°42'7117.1
2016-May-24 05:24N 52°47' E 002°11'1416.0
2016-May-24 04:34N 52°56' E 001°54'1615.7
2016-May-24 03:34N 53°06' E 001°33'2215.5
2016-May-24 02:10N 53°21' E 001°09'1215.6
2016-May-24 01:22N 53°32' E 000°58'1315.8
2016-May-24 00:32N 53°42' E 000°44'1715.9
2016-May-23 23:30N 53°55' E 000°26'1516.3
2016-May-23 22:34N 54°06' E 000°09'1616.4
2016-May-23 21:34N 54°18' W 000°11'1717.0
2016-May-23 20:33N 54°30' W 000°32'1817.4
2016-May-23 19:31N 54°38' W 000°59'6 0.4
2016-May-23 04:19N 54°37' W 001°09'912.0
2016-May-23 03:33N 54°44' W 000°59'1010.2
2016-May-23 02:33N 54°48' W 000°43'1010.5
2016-May-23 01:33N 54°53' W 000°27'1311.3
2016-May-23 00:27N 54°58' W 000°07'38513.3
2016-May-21 19:33N 57°44' E 010°19'1514.6
2016-May-21 18:33N 57°47' E 010°46'1515.0
2016-May-21 17:33N 57°37' E 011°07'1515.4
2016-May-21 16:34N 57°26' E 011°27'1615.6
2016-May-21 15:34N 57°12' E 011°37'1615.8
2016-May-21 14:33N 56°57' E 011°47'1514.8
2016-May-21 13:34N 56°42' E 011°51'8714.3
2016-May-21 07:28N 55°19' E 011°02'1415.1
2016-May-21 06:34N 55°06' E 011°03'1615.6
2016-May-21 05:34N 54°51' E 010°53'1413.7
2016-May-21 04:34N 54°39' E 011°03'1616.2
2016-May-21 03:34N 54°31' E 011°27'1616.4
2016-May-21 02:34N 54°26' E 011°54'1313.1
2016-May-21 01:33N 54°33' E 012°14'1515.0
2016-May-21 00:34N 54°43' E 012°33'3515.5
2016-May-20 22:18N 54°58' E 013°28'1215.7
2016-May-20 21:34N 55°02' E 013°47'1515.0
2016-May-20 20:34N 55°09' E 014°10'1615.7
2016-May-20 19:33N 55°21' E 014°28'1515.4
2016-May-20 18:34N 55°31' E 014°48'1616.0
2016-May-20 17:34N 55°39' E 015°13'1715.9
2016-May-20 16:31N 55°47' E 015°39'1616.0
2016-May-20 15:33N 55°55' E 016°03'  
Track history (hours):
 
Tides and Currents Weather Stations Pressure Air Temp Water Temp Dewpoint Dewpoint Depression Visibility Wind Speed Wind Dir Waves Ship Positions

Linda

Last reported at 2016-May-29 11:32 UTC. Time now 2016-May-29 11:34 UTC.
Position N 59°38' E 023°57'.

Length 141 m; draft 7 m.

Type: Ship (hazmat cat A). MMSI: 230984000.

Date/timePositionNaut miles runAvg speedWind from/ knotsBaromVisibWave heightAir tempDewpointWater temp
2016-May-29 11:32N 59°38' E 023°57'1110.6
2016-May-29 10:31N 59°35' E 023°36'7 6.9
2016-May-29 09:30N 59°32' E 023°23'329 6.6
2016-May-27 07:26N 55°48' E 015°55'1415.6
2016-May-27 06:33N 55°40' E 015°34'1615.8
2016-May-27 05:33N 55°32' E 015°10'1615.6
2016-May-27 04:33N 55°25' E 014°46'1615.6
2016-May-27 03:33N 55°14' E 014°25'1414.2
2016-May-27 02:33N 55°11' E 014°01'1515.4
2016-May-27 01:33N 55°12' E 013°34'1615.7
2016-May-27 00:33N 55°14' E 013°07'1515.4
2016-May-26 23:33N 55°17' E 012°40'1414.1
2016-May-26 22:34N 55°31' E 012°42'9 8.9
2016-May-26 21:34N 55°40' E 012°41'1413.7
2016-May-26 20:34N 55°54' E 012°40'1313.2
2016-May-26 19:34N 56°06' E 012°32'1515.4
2016-May-26 18:34N 56°15' E 012°09'3215.4
2016-May-26 16:30N 56°46' E 011°52'1515.7
2016-May-26 15:33N 56°60' E 011°42'1515.4
2016-May-26 14:34N 57°14' E 011°32'1515.4
2016-May-26 13:33N 57°28' E 011°22'1515.4
2016-May-26 12:34N 57°39' E 011°01'1514.5
2016-May-26 11:34N 57°47' E 010°38'1514.6
2016-May-26 10:34N 57°42' E 010°12'1515.5
2016-May-26 09:34N 57°36' E 009°46'24015.5
2016-May-25 18:04N 54°24' E 005°27'815.3
2016-May-25 17:33N 54°18' E 005°20'1515.1
2016-May-25 16:32N 54°04' E 005°07'1515.3
2016-May-25 15:33N 53°50' E 004°60'1715.2
2016-May-25 14:25N 53°34' E 004°48'4214.7
2016-May-25 11:32N 52°56' E 004°18'1814.5
2016-May-25 10:19N 52°41' E 004°04'1114.5
2016-May-25 09:33N 52°31' E 003°55'1514.7
2016-May-25 08:33N 52°16' E 003°52'1514.8
2016-May-25 07:33N 52°02' E 003°52'1111.1
2016-May-25 06:33N 51°58' E 004°09'1110.5
2016-May-25 05:33N 51°53' E 004°24'1 0.6
2016-May-25 04:33N 51°53' E 004°25'0 0.0
2016-May-25 03:33N 51°53' E 004°25'0 0.0
2016-May-25 02:33N 51°53' E 004°25'0 0.0
2016-May-25 01:33N 51°53' E 004°25'0 0.0
2016-May-25 00:33N 51°53' E 004°25'0 0.0
2016-May-24 23:33N 51°53' E 004°25'0 0.0
2016-May-24 22:33N 51°53' E 004°25'0 0.0
2016-May-24 21:33N 51°53' E 004°25'0 0.0
2016-May-24 20:33N 51°53' E 004°25'0 0.0
2016-May-24 19:33N 51°53' E 004°25'0 0.0
2016-May-24 18:33N 51°53' E 004°25'0 0.0
2016-May-24 17:33N 51°53' E 004°25'0 0.0
2016-May-24 16:33N 51°53' E 004°25'0 0.0
2016-May-24 15:33N 51°53' E 004°25'0 0.0
2016-May-24 14:33N 51°53' E 004°25'0 0.0
2016-May-24 13:33N 51°53' E 004°25'0 0.0
2016-May-24 12:33N 51°53' E 004°25'3 3.4
2016-May-24 11:34N 51°54' E 004°20'1211.7
2016-May-24 10:33N 51°59' E 004°03'1313.4
2016-May-24 09:34N 52°03' E 003°42'7117.1
2016-May-24 05:24N 52°47' E 002°11'1416.0
2016-May-24 04:34N 52°56' E 001°54'1615.7
2016-May-24 03:34N 53°06' E 001°33'2215.5
2016-May-24 02:10N 53°21' E 001°09'1215.6
2016-May-24 01:22N 53°32' E 000°58'1315.8
2016-May-24 00:32N 53°42' E 000°44'1715.9
2016-May-23 23:30N 53°55' E 000°26'1516.3
2016-May-23 22:34N 54°06' E 000°09'1616.4
2016-May-23 21:34N 54°18' W 000°11'1717.0
2016-May-23 20:33N 54°30' W 000°32'1817.4
2016-May-23 19:31N 54°38' W 000°59'6 0.4
2016-May-23 04:19N 54°37' W 001°09'912.0
2016-May-23 03:33N 54°44' W 000°59'1010.2
2016-May-23 02:33N 54°48' W 000°43'1010.5
2016-May-23 01:33N 54°53' W 000°27'1311.3
2016-May-23 00:27N 54°58' W 000°07'38513.3
2016-May-21 19:33N 57°44' E 010°19'1514.6
2016-May-21 18:33N 57°47' E 010°46'1515.0
2016-May-21 17:33N 57°37' E 011°07'1515.4
2016-May-21 16:34N 57°26' E 011°27'1615.6
2016-May-21 15:34N 57°12' E 011°37'1615.8
2016-May-21 14:33N 56°57' E 011°47'1514.8
2016-May-21 13:34N 56°42' E 011°51'8714.3
2016-May-21 07:28N 55°19' E 011°02'1415.1
2016-May-21 06:34N 55°06' E 011°03'1615.6
2016-May-21 05:34N 54°51' E 010°53'1413.7
2016-May-21 04:34N 54°39' E 011°03'1616.2
2016-May-21 03:34N 54°31' E 011°27'1616.4
2016-May-21 02:34N 54°26' E 011°54'1313.1
2016-May-21 01:33N 54°33' E 012°14'1515.0
2016-May-21 00:34N 54°43' E 012°33'3515.5
2016-May-20 22:18N 54°58' E 013°28'1215.7
2016-May-20 21:34N 55°02' E 013°47'1515.0
2016-May-20 20:34N 55°09' E 014°10'1615.7
2016-May-20 19:33N 55°21' E 014°28'1515.4
2016-May-20 18:34N 55°31' E 014°48'1616.0
2016-May-20 17:34N 55°39' E 015°13'1715.9
2016-May-20 16:31N 55°47' E 015°39'1616.0
2016-May-20 15:33N 55°55' E 016°03'  

Dump ship's entire track history